Terminal Aerodrome Forecast
Issued by NWS

Home | Current Version | Previous Version | Text Only | Print | Product List | Glossary On
Versions: 1 2 3 4 5 6 7 8 9 10 11 12 13 14 15 16 17 18
000
FTUS46 KSEW 282300
TAFOLM
TAF
KOLM 282320Z 2900/2924 22008KT P6SM SCT030 BKN050 OVC100
     FM290300 20004KT P6SM BKN050 OVC080
     FM290600 19005KT P6SM OVC050=

USA.gov is the U.S. government's official web portal to all federal, state and local government web resources and services.